Time;durP1;ratioP1;P1;durP2;ratioP2;P2;SDS_P1;SDS_P2;PMS_P1;PMS_P2;Temp;Humidity;BMP_temperature;BMP_pressure;BME280_temperature;BME280_humidity;BME280_pressure;Samples;Min_cycle;Max_cycle;Signal;HPM_P1;HPM_P2
2023/08/15 00:02:09;;;;;;;8.15;6.60;;;20.30;99.90;;;;;;5075151;28;20023;-76
2023/08/15 00:04:35;;;;;;;8.15;6.03;;;20.40;99.90;;;;;;5077206;28;20023;-76
2023/08/15 00:07:04;;;;;;;7.68;6.88;;;20.40;99.90;;;;;;5065844;28;20043;-77
2023/08/15 00:09:33;;;;;;;9.57;7.03;;;20.40;99.90;;;;;;5063135;28;20095;-77
2023/08/15 00:11:59;;;;;;;8.88;6.75;;;20.40;99.90;;;;;;5064562;28;20114;-77
2023/08/15 00:14:25;;;;;;;8.90;6.38;;;20.40;99.90;;;;;;5067558;28;20032;-79
2023/08/15 00:16:51;;;;;;;7.47;6.68;;;20.40;99.90;;;;;;5049515;28;20028;-78
2023/08/15 00:19:17;;;;;;;9.85;6.75;;;20.40;99.90;;;;;;5060605;28;20028;-76
2023/08/15 00:21:42;;;;;;;8.45;7.03;;;20.40;99.90;;;;;;5082085;28;20096;-78
2023/08/15 00:24:08;;;;;;;9.85;6.63;;;20.40;99.90;;;;;;5048285;28;20035;-77
2023/08/15 00:26:34;;;;;;;9.23;6.90;;;20.40;99.90;;;;;;5064687;28;20260;-79
2023/08/15 00:28:59;;;;;;;9.23;6.55;;;20.40;99.90;;;;;;5061391;28;20255;-78
2023/08/15 00:31:25;;;;;;;14.60;9.18;;;20.40;99.90;;;;;;5047829;28;20032;-78
2023/08/15 00:33:51;;;;;;;12.32;7.47;;;20.40;99.90;;;;;;5047052;28;20102;-76
2023/08/15 00:36:17;;;;;;;9.70;7.57;;;20.40;99.90;;;;;;5076740;28;20063;-76
2023/08/15 00:38:43;;;;;;;10.20;8.20;;;20.40;99.90;;;;;;5074037;28;20032;-76
2023/08/15 00:41:09;;;;;;;10.90;7.80;;;20.30;99.90;;;;;;5061698;28;20241;-77
2023/08/15 00:43:35;;;;;;;8.02;7.22;;;20.30;99.90;;;;;;5082293;28;20032;-77
2023/08/15 00:46:03;;;;;;;10.23;7.10;;;20.10;99.90;;;;;;5064760;28;20039;-77
2023/08/15 00:48:30;;;;;;;8.48;7.20;;;20.20;99.90;;;;;;5081095;28;20487;-79
2023/08/15 00:50:58;;;;;;;9.38;6.93;;;20.30;99.90;;;;;;5046476;28;20040;-77
2023/08/15 00:53:25;;;;;;;12.52;7.95;;;20.30;99.90;;;;;;5064587;28;20051;-77
2023/08/15 00:55:54;;;;;;;10.30;8.85;;;20.30;99.90;;;;;;5081188;28;20066;-78
2023/08/15 00:58:19;;;;;;;14.45;8.48;;;20.30;99.90;;;;;;5064667;28;20023;-80
2023/08/15 01:00:45;;;;;;;10.52;6.93;;;20.40;99.90;;;;;;5046810;28;20061;-77
2023/08/15 01:03:12;;;;;;;9.68;8.05;;;20.50;99.90;;;;;;5044726;28;20028;-78
2023/08/15 01:05:39;;;;;;;8.90;7.82;;;20.50;99.90;;;;;;5065861;28;20038;-78
2023/08/15 01:08:06;;;;;;;8.57;7.35;;;20.50;99.90;;;;;;5064732;28;20287;-78
2023/08/15 01:10:32;;;;;;;10.27;7.70;;;20.60;99.90;;;;;;5081740;28;20032;-77
2023/08/15 01:13:08;;;;;;;11.57;8.25;;;20.60;99.90;;;;;;5064557;28;20103;-79
2023/08/15 01:15:39;;;;;;;10.43;7.22;;;20.60;99.90;;;;;;5057324;28;20089;-78
2023/08/15 01:18:17;;;;;;;9.27;7.68;;;20.60;99.90;;;;;;5081376;28;20028;-79
2023/08/15 01:20:42;;;;;;;8.80;7.05;;;20.60;99.90;;;;;;5075905;28;20032;-79
2023/08/15 01:23:12;;;;;;;8.82;7.63;;;20.70;99.90;;;;;;5060968;28;20222;-76
2023/08/15 01:25:40;;;;;;;9.32;8.00;;;20.60;99.90;;;;;;5081362;28;20318;-77
2023/08/15 01:28:11;;;;;;;12.13;7.80;;;20.60;99.90;;;;;;5082108;28;20043;-79
2023/08/15 01:30:38;;;;;;;8.52;7.70;;;20.70;99.90;;;;;;5064173;28;20330;-76
2023/08/15 01:33:14;;;;;;;9.63;7.13;;;20.60;99.90;;;;;;5075467;28;20673;-80
2023/08/15 01:35:46;;;;;;;10.77;7.82;;;20.70;99.90;;;;;;5090842;28;20087;-76
2023/08/15 01:38:25;;;;;;;8.30;7.30;;;20.70;99.90;;;;;;5087895;28;20042;-77
2023/08/15 01:40:53;;;;;;;10.35;7.22;;;20.70;99.90;;;;;;5054603;28;20032;-78
2023/08/15 01:43:20;;;;;;;8.32;7.38;;;20.70;99.90;;;;;;5083028;28;20043;-77
2023/08/15 01:45:46;;;;;;;13.38;7.75;;;20.60;99.90;;;;;;5068469;28;20136;-76
2023/08/15 01:48:12;;;;;;;8.93;7.43;;;20.60;99.90;;;;;;5086729;28;20052;-77
2023/08/15 01:50:38;;;;;;;11.32;7.63;;;20.60;99.90;;;;;;5061737;28;20067;-76
2023/08/15 01:53:04;;;;;;;12.18;8.13;;;20.50;99.90;;;;;;5071750;28;20094;-77
2023/08/15 01:55:29;;;;;;;10.43;7.90;;;20.60;99.90;;;;;;5065517;28;20063;-77
2023/08/15 01:57:55;;;;;;;10.65;7.95;;;20.60;99.90;;;;;;5078997;28;20054;-77
2023/08/15 02:00:21;;;;;;;9.55;7.82;;;20.50;99.90;;;;;;5066214;28;20311;-77
2023/08/15 02:02:46;;;;;;;12.05;7.88;;;20.60;99.90;;;;;;5025714;28;20276;-78
2023/08/15 02:05:13;;;;;;;12.02;8.80;;;20.60;99.90;;;;;;5050026;28;20032;-77
2023/08/15 02:07:39;;;;;;;10.23;8.60;;;20.80;99.90;;;;;;5063424;28;20052;-76
2023/08/15 02:10:05;;;;;;;10.65;8.50;;;20.70;99.90;;;;;;5070194;28;20046;-77
2023/08/15 02:12:31;;;;;;;13.70;9.13;;;20.80;99.90;;;;;;5079073;28;20044;-78
2023/08/15 02:14:56;;;;;;;8.65;7.70;;;20.90;99.90;;;;;;5066269;28;20158;-77
2023/08/15 02:17:22;;;;;;;10.90;9.00;;;20.90;99.90;;;;;;5071885;28;20100;-76
2023/08/15 02:19:48;;;;;;;11.05;8.60;;;21.00;99.90;;;;;;5069488;28;20088;-77
2023/08/15 02:22:13;;;;;;;10.20;8.13;;;20.90;99.90;;;;;;5087069;28;20027;-77
2023/08/15 02:24:39;;;;;;;10.75;7.85;;;21.00;99.90;;;;;;5070775;28;20028;-78
2023/08/15 02:27:05;;;;;;;10.27;8.60;;;21.00;99.90;;;;;;5069432;28;20043;-76
2023/08/15 02:29:30;;;;;;;10.50;8.25;;;21.00;99.90;;;;;;5066959;28;20020;-77
2023/08/15 02:31:56;;;;;;;10.55;8.32;;;20.90;99.90;;;;;;5084231;28;20103;-77
2023/08/15 02:34:22;;;;;;;11.27;8.73;;;20.90;99.90;;;;;;5070089;28;20036;-78
2023/08/15 02:36:47;;;;;;;12.02;9.85;;;21.00;99.90;;;;;;5068316;28;20101;-77
2023/08/15 02:39:16;;;;;;;10.00;8.38;;;20.90;99.90;;;;;;5082904;28;20039;-78
2023/08/15 02:41:43;;;;;;;13.07;8.90;;;20.90;99.90;;;;;;5067047;28;20031;-77
2023/08/15 02:44:09;;;;;;;9.45;7.97;;;21.00;99.90;;;;;;5082988;28;20036;-77
2023/08/15 02:46:34;;;;;;;11.90;8.93;;;20.90;99.90;;;;;;5085162;28;20398;-77
2023/08/15 02:49:00;;;;;;;10.60;7.55;;;21.00;99.90;;;;;;5066300;28;20071;-78
2023/08/15 02:51:26;;;;;;;10.65;8.43;;;21.00;99.90;;;;;;5049763;28;20318;-77
2023/08/15 02:53:52;;;;;;;12.55;8.88;;;21.00;99.90;;;;;;5068040;28;20020;-78
2023/08/15 02:56:17;;;;;;;12.52;8.25;;;21.10;99.90;;;;;;5053083;28;20093;-78
2023/08/15 02:58:43;;;;;;;10.95;8.15;;;21.00;99.90;;;;;;5045705;28;20039;-77
2023/08/15 03:01:09;;;;;;;11.80;7.57;;;21.00;99.90;;;;;;5049044;28;20067;-77
2023/08/15 03:03:35;;;;;;;9.98;8.00;;;21.10;99.90;;;;;;5049698;28;20038;-78
2023/08/15 03:06:02;;;;;;;10.70;7.90;;;20.90;99.90;;;;;;5066946;28;20051;-77
2023/08/15 03:08:28;;;;;;;12.15;8.85;;;20.90;99.90;;;;;;5069556;28;20062;-77
2023/08/15 03:10:53;;;;;;;10.13;8.02;;;21.00;99.90;;;;;;5082905;28;20023;-78
2023/08/15 03:13:19;;;;;;;8.82;7.70;;;21.00;99.90;;;;;;5080400;28;20035;-78
2023/08/15 03:15:52;;;;;;;11.77;8.23;;;20.90;99.90;;;;;;5050232;28;20043;-78
2023/08/15 03:18:18;;;;;;;10.07;8.02;;;20.90;99.90;;;;;;5081316;28;20028;-78
2023/08/15 03:20:44;;;;;;;12.88;8.38;;;20.90;99.90;;;;;;5068166;28;20031;-79
2023/08/15 03:23:11;;;;;;;9.55;8.13;;;20.90;99.90;;;;;;5081480;28;20377;-77
2023/08/15 03:25:36;;;;;;;11.38;8.10;;;20.90;99.90;;;;;;5086203;28;20429;-77
2023/08/15 03:28:02;;;;;;;11.05;7.95;;;20.90;99.90;;;;;;5062422;28;20069;-78
2023/08/15 03:30:28;;;;;;;11.18;8.25;;;20.90;99.90;;;;;;5047723;28;20059;-77
2023/08/15 03:32:54;;;;;;;12.45;9.45;;;21.00;99.90;;;;;;5050228;28;20074;-78
2023/08/15 03:35:19;;;;;;;10.60;9.43;;;21.00;99.90;;;;;;5084456;28;20314;-78
2023/08/15 03:37:45;;;;;;;14.43;9.18;;;21.00;99.90;;;;;;5061750;28;20031;-81
2023/08/15 03:40:11;;;;;;;11.35;8.60;;;20.80;99.90;;;;;;5080401;28;20111;-80
2023/08/15 03:42:36;;;;;;;12.95;9.63;;;20.90;99.90;;;;;;5063919;28;20016;-77
2023/08/15 03:45:03;;;;;;;12.93;9.45;;;20.70;99.90;;;;;;5059681;28;20056;-79
2023/08/15 03:47:28;;;;;;;11.75;9.75;;;20.80;99.90;;;;;;5059907;28;20063;-78
2023/08/15 03:49:54;;;;;;;13.10;9.43;;;20.60;99.90;;;;;;5065419;28;20032;-79
2023/08/15 03:52:20;;;;;;;10.00;9.00;;;20.60;99.90;;;;;;5044170;28;20024;-79
2023/08/15 03:54:45;;;;;;;9.65;8.52;;;20.50;99.90;;;;;;5045876;28;20074;-77
2023/08/15 03:57:11;;;;;;;11.18;8.90;;;20.50;99.90;;;;;;5052817;28;20032;-78
2023/08/15 03:59:37;;;;;;;13.75;9.30;;;20.50;99.90;;;;;;5061490;28;20032;-79
2023/08/15 04:02:03;;;;;;;10.63;8.65;;;20.40;99.90;;;;;;5062692;28;20039;-79
2023/08/15 04:04:28;;;;;;;10.82;8.32;;;20.40;99.90;;;;;;5064061;28;20040;-80
2023/08/15 04:06:54;;;;;;;11.07;8.88;;;20.40;99.90;;;;;;5046419;28;20077;-77
2023/08/15 04:09:20;;;;;;;10.38;9.27;;;20.40;99.90;;;;;;5080772;28;20047;-79
2023/08/15 04:11:45;;;;;;;12.15;8.45;;;20.40;99.90;;;;;;5047567;28;20028;-78
2023/08/15 04:14:11;;;;;;;9.32;7.97;;;20.40;99.90;;;;;;5045354;28;20455;-78
2023/08/15 04:16:38;;;;;;;11.32;9.27;;;20.30;99.90;;;;;;5060737;28;20035;-78
2023/08/15 04:19:04;;;;;;;13.55;10.30;;;20.40;99.90;;;;;;5046035;28;20051;-77
2023/08/15 04:21:29;;;;;;;15.02;10.07;;;20.40;99.90;;;;;;5081512;28;20108;-78
2023/08/15 04:23:55;;;;;;;12.98;8.88;;;20.40;99.90;;;;;;5035665;28;20038;-79
2023/08/15 04:26:21;;;;;;;12.07;9.10;;;20.40;99.90;;;;;;5061516;28;20063;-78
2023/08/15 04:28:47;;;;;;;10.23;8.90;;;20.40;99.90;;;;;;5070928;28;20047;-77
2023/08/15 04:31:13;;;;;;;13.43;9.60;;;20.50;99.90;;;;;;5080710;28;20042;-79
2023/08/15 04:33:38;;;;;;;10.35;9.07;;;20.50;99.90;;;;;;5045589;28;20515;-78
2023/08/15 04:36:04;;;;;;;12.10;8.55;;;20.50;99.90;;;;;;5067222;28;20032;-77
2023/08/15 04:38:30;;;;;;;9.85;8.77;;;20.50;99.90;;;;;;5057338;28;20133;-77
2023/08/15 04:40:55;;;;;;;10.82;9.05;;;20.50;99.90;;;;;;5036741;28;20289;-77
2023/08/15 04:43:21;;;;;;;13.43;10.27;;;20.40;99.90;;;;;;5080215;28;20098;-77
2023/08/15 04:45:47;;;;;;;11.23;9.07;;;20.40;99.90;;;;;;5044007;28;20029;-78
2023/08/15 04:48:13;;;;;;;10.55;9.45;;;20.40;99.90;;;;;;5061876;28;20063;-78
2023/08/15 04:50:38;;;;;;;10.20;9.07;;;20.50;99.90;;;;;;5061653;28;20055;-78
2023/08/15 04:53:05;;;;;;;14.38;10.18;;;20.40;99.90;;;;;;5062327;28;20047;-77
2023/08/15 04:55:31;;;;;;;12.38;9.95;;;20.40;99.90;;;;;;5065040;28;20210;-77
2023/08/15 04:57:57;;;;;;;14.05;11.13;;;20.50;99.90;;;;;;5082270;28;20040;-77
2023/08/15 05:00:22;;;;;;;12.85;10.38;;;20.40;99.90;;;;;;5061648;28;20024;-78
2023/08/15 05:02:48;;;;;;;12.75;10.75;;;20.40;99.90;;;;;;5064580;28;20249;-77
2023/08/15 05:05:15;;;;;;;13.02;10.15;;;20.50;99.90;;;;;;5067981;28;20040;-76
2023/08/15 05:07:41;;;;;;;14.55;11.15;;;20.60;99.90;;;;;;5036177;28;20016;-76
2023/08/15 05:10:10;;;;;;;14.38;11.63;;;20.60;99.90;;;;;;5051513;28;20098;-76
2023/08/15 05:12:36;;;;;;;12.98;11.63;;;20.60;99.90;;;;;;5067935;28;20039;-77
2023/08/15 05:15:02;;;;;;;16.00;11.50;;;20.50;99.90;;;;;;5045046;28;20055;-77
2023/08/15 05:17:28;;;;;;;16.45;11.50;;;20.60;99.90;;;;;;5050287;28;20044;-76
2023/08/15 05:19:54;;;;;;;13.60;11.90;;;20.60;99.90;;;;;;5049221;28;20028;-78
2023/08/15 05:22:19;;;;;;;14.00;11.68;;;20.60;99.90;;;;;;5065760;28;20044;-77
2023/08/15 05:24:45;;;;;;;13.23;10.82;;;20.70;99.90;;;;;;5082745;28;20039;-74
2023/08/15 05:27:14;;;;;;;15.25;11.32;;;20.60;99.90;;;;;;5049355;28;20150;-77
2023/08/15 05:29:43;;;;;;;14.13;10.85;;;20.60;99.90;;;;;;5083517;28;20440;-77
2023/08/15 05:32:09;;;;;;;11.60;10.30;;;20.80;99.90;;;;;;5061784;28;20095;-77
2023/08/15 05:34:35;;;;;;;14.05;10.57;;;20.70;99.90;;;;;;5064263;28;20325;-77
2023/08/15 05:37:01;;;;;;;12.30;10.15;;;20.70;99.90;;;;;;5065995;28;20040;-76
2023/08/15 05:39:26;;;;;;;13.30;9.90;;;20.80;99.90;;;;;;5050195;28;20341;-75
2023/08/15 05:41:52;;;;;;;12.95;9.70;;;20.90;99.90;;;;;;5042244;28;20070;-77
2023/08/15 05:44:18;;;;;;;13.88;9.55;;;21.00;99.90;;;;;;5082592;28;20036;-76
2023/08/15 05:46:43;;;;;;;13.07;10.90;;;21.30;99.90;;;;;;5064125;28;20028;-76
2023/08/15 05:49:09;;;;;;;14.25;9.80;;;21.00;99.90;;;;;;5064438;28;20112;-76
2023/08/15 05:51:35;;;;;;;12.05;10.23;;;21.00;99.90;;;;;;5065071;28;20257;-76
2023/08/15 05:54:00;;;;;;;14.93;11.05;;;21.10;99.90;;;;;;5061229;28;20032;-76
2023/08/15 05:56:26;;;;;;;15.68;10.40;;;21.10;99.90;;;;;;5065763;28;20064;-76
2023/08/15 05:58:52;;;;;;;14.55;10.13;;;21.00;99.90;;;;;;5065687;28;20046;-77
2023/08/15 06:01:20;;;;;;;16.35;10.15;;;21.10;99.90;;;;;;5045860;28;20050;-76
2023/08/15 06:03:46;;;;;;;11.85;9.23;;;21.00;99.90;;;;;;5049125;28;20040;-76
2023/08/15 06:06:13;;;;;;;15.07;9.38;;;21.10;99.90;;;;;;5031373;28;20028;-77
2023/08/15 06:08:38;;;;;;;11.73;8.48;;;21.10;99.90;;;;;;5083031;28;20039;-81
2023/08/15 06:11:05;;;;;;;12.20;7.88;;;21.00;99.90;;;;;;5031015;28;20108;-79
2023/08/15 06:13:32;;;;;;;10.77;8.43;;;20.90;99.90;;;;;;5061952;28;20041;-81
2023/08/15 06:15:57;;;;;;;12.55;8.15;;;21.00;99.90;;;;;;5060508;28;20101;-78
2023/08/15 06:18:23;;;;;;;12.30;8.35;;;20.90;99.90;;;;;;5068598;28;20032;-77
2023/08/15 06:20:49;;;;;;;13.20;7.85;;;20.80;99.90;;;;;;5067166;28;20099;-79
2023/08/15 06:23:15;;;;;;;10.35;7.63;;;20.80;99.90;;;;;;5072595;28;20055;-78
2023/08/15 06:25:40;;;;;;;11.63;7.43;;;20.80;99.90;;;;;;5049985;28;20038;-79
2023/08/15 06:28:08;;;;;;;9.00;6.63;;;20.80;99.90;;;;;;5046911;28;20215;-80
2023/08/15 06:30:33;;;;;;;10.55;6.68;;;20.90;99.90;;;;;;5056756;28;20034;-78
2023/08/15 06:32:59;;;;;;;10.15;6.75;;;21.20;99.90;;;;;;5083535;28;20043;-82
2023/08/15 06:35:28;;;;;;;11.25;6.40;;;21.20;99.90;;;;;;5083126;28;20081;-78
2023/08/15 06:37:54;;;;;;;14.13;6.18;;;21.20;99.90;;;;;;5067382;28;20083;-80
2023/08/15 06:40:20;;;;;;;11.98;6.40;;;21.20;99.90;;;;;;5066773;28;20059;-79
2023/08/15 06:42:46;;;;;;;8.68;5.88;;;21.40;99.90;;;;;;5050969;28;20214;-81
2023/08/15 06:45:12;;;;;;;10.95;5.88;;;21.50;99.90;;;;;;5066158;28;20027;-78
2023/08/15 06:47:38;;;;;;;9.73;6.07;;;21.60;99.90;;;;;;5081613;28;20064;-78
2023/08/15 06:50:05;;;;;;;11.18;6.55;;;21.50;99.90;;;;;;5063537;28;20218;-79
2023/08/15 06:52:31;;;;;;;10.60;6.68;;;21.70;99.90;;;;;;5022114;28;20028;-82
2023/08/15 06:54:56;;;;;;;9.40;5.65;;;21.80;99.90;;;;;;5060844;28;20117;-80
2023/08/15 06:57:22;;;;;;;9.55;6.20;;;21.90;99.90;;;;;;5056209;28;20043;-81
2023/08/15 06:59:48;;;;;;;8.68;5.60;;;21.90;99.90;;;;;;5044263;28;20051;-78
2023/08/15 07:02:13;;;;;;;9.57;5.65;;;21.90;99.90;;;;;;5047817;28;20070;-79
2023/08/15 07:04:41;;;;;;;7.70;5.55;;;21.80;99.90;;;;;;5031585;28;20048;-79
2023/08/15 07:07:11;;;;;;;10.25;5.68;;;21.90;99.90;;;;;;5049445;28;20104;-79
2023/08/15 07:09:37;;;;;;;9.10;6.20;;;21.70;99.90;;;;;;5060946;28;20021;-78
2023/08/15 07:12:05;;;;;;;9.10;5.90;;;21.70;99.90;;;;;;5047955;28;20318;-80
2023/08/15 07:14:31;;;;;;;8.50;5.72;;;21.80;99.90;;;;;;5051017;28;20031;-80
2023/08/15 07:16:57;;;;;;;7.60;6.38;;;21.60;99.90;;;;;;5050781;28;20092;-77
2023/08/15 07:19:22;;;;;;;9.57;5.70;;;21.80;99.90;;;;;;5084079;28;20036;-81
2023/08/15 07:21:48;;;;;;;10.73;6.30;;;21.80;99.90;;;;;;5061933;28;20123;-78
2023/08/15 07:24:15;;;;;;;10.80;6.53;;;21.90;99.90;;;;;;5064056;28;20043;-79
2023/08/15 07:26:41;;;;;;;9.48;6.03;;;21.80;99.90;;;;;;5063899;28;20043;-78
2023/08/15 07:29:06;;;;;;;10.75;5.85;;;22.00;99.90;;;;;;5062357;28;20028;-80
2023/08/15 07:31:32;;;;;;;10.32;6.03;;;22.00;99.90;;;;;;5052523;28;20182;-79
2023/08/15 07:33:58;;;;;;;14.15;6.68;;;22.00;99.90;;;;;;5066993;28;20028;-80
2023/08/15 07:36:24;;;;;;;9.68;5.30;;;22.30;99.90;;;;;;5050313;28;20074;-78
2023/08/15 07:38:49;;;;;;;10.73;6.20;;;22.50;99.90;;;;;;5083364;28;20038;-81
2023/08/15 07:41:15;;;;;;;8.55;5.57;;;22.40;99.90;;;;;;5065287;28;20389;-82
2023/08/15 07:43:40;;;;;;;8.63;5.20;;;22.50;99.90;;;;;;5030077;28;20108;-80
2023/08/15 07:46:06;;;;;;;11.30;5.15;;;22.70;99.90;;;;;;5062077;28;20085;-78
2023/08/15 07:48:32;;;;;;;11.85;4.68;;;22.80;99.90;;;;;;5035312;28;20048;-81
2023/08/15 07:50:58;;;;;;;10.95;4.72;;;23.20;99.90;;;;;;5061958;28;20043;-78
2023/08/15 07:53:23;;;;;;;10.25;4.00;;;23.10;99.90;;;;;;5026384;28;20192;-82
2023/08/15 07:55:49;;;;;;;9.10;4.13;;;23.00;99.90;;;;;;5028956;28;20270;-78
2023/08/15 07:58:15;;;;;;;9.23;4.32;;;23.00;99.90;;;;;;5058737;28;20071;-81
2023/08/15 08:00:42;;;;;;;9.10;3.60;;;23.20;99.90;;;;;;5042347;28;20220;-79
2023/08/15 08:03:08;;;;;;;9.07;3.28;;;23.40;99.90;;;;;;5058241;28;20070;-79
2023/08/15 08:05:34;;;;;;;8.02;3.53;;;23.40;99.90;;;;;;5028912;28;20040;-78
2023/08/15 08:08:01;;;;;;;10.57;3.70;;;23.40;99.90;;;;;;5028584;28;20063;-82
2023/08/15 08:10:27;;;;;;;6.45;3.10;;;23.40;99.90;;;;;;5045699;28;20521;-80
2023/08/15 08:12:53;;;;;;;6.78;3.13;;;23.60;99.90;;;;;;5038429;28;20040;-80
2023/08/15 08:15:23;;;;;;;6.05;2.95;;;23.50;99.90;;;;;;5041948;28;20021;-80
2023/08/15 08:17:49;;;;;;;6.72;2.75;;;23.70;99.90;;;;;;5042134;28;20036;-81
2023/08/15 08:20:17;;;;;;;6.55;2.58;;;23.70;99.90;;;;;;5041744;28;20024;-82
2023/08/15 08:22:43;;;;;;;6.55;2.88;;;23.70;99.90;;;;;;5044180;28;20032;-80
2023/08/15 08:25:20;;;;;;;5.82;3.28;;;23.50;99.90;;;;;;5058149;28;20032;-81
2023/08/15 08:27:46;;;;;;;6.03;2.67;;;23.60;99.90;;;;;;5061838;28;20048;-80
2023/08/15 08:30:14;;;;;;;6.97;2.85;;;23.40;99.90;;;;;;5028378;28;20059;-81
2023/08/15 08:32:40;;;;;;;3.85;2.28;;;23.60;99.90;;;;;;5045151;28;20047;-80
2023/08/15 08:35:06;;;;;;;3.63;2.35;;;23.70;99.90;;;;;;5027293;28;20099;-81
2023/08/15 08:37:32;;;;;;;4.07;1.80;;;23.90;99.90;;;;;;5078940;28;20373;-80
2023/08/15 08:39:58;;;;;;;4.45;2.08;;;24.10;99.90;;;;;;5060968;28;20040;-79
2023/08/15 08:42:25;;;;;;;4.85;1.90;;;24.10;99.90;;;;;;5028552;28;20039;-78
2023/08/15 08:44:51;;;;;;;5.35;1.70;;;24.20;99.90;;;;;;5061723;28;20032;-79
2023/08/15 08:47:22;;;;;;;3.90;2.00;;;24.20;99.90;;;;;;5045047;28;20079;-80
2023/08/15 08:49:51;;;;;;;6.60;2.13;;;24.20;99.90;;;;;;5061585;28;20512;-80
2023/08/15 08:52:17;;;;;;;6.15;2.15;;;24.30;99.90;;;;;;5028836;28;20037;-79
2023/08/15 08:54:43;;;;;;;5.78;1.80;;;24.20;99.90;;;;;;5029713;28;20029;-79
2023/08/15 08:57:10;;;;;;;8.07;2.20;;;24.60;99.90;;;;;;5044312;28;20314;-79
2023/08/15 08:59:39;;;;;;;4.75;1.80;;;24.80;99.90;;;;;;5029040;28;20044;-79
2023/08/15 09:02:11;;;;;;;4.63;1.60;;;24.90;99.90;;;;;;5061779;28;20036;-80
2023/08/15 09:04:37;;;;;;;5.57;1.80;;;25.10;99.90;;;;;;5044749;28;20032;-79
2023/08/15 09:07:03;;;;;;;5.28;1.80;;;25.30;99.90;;;;;;5061998;28;20071;-78
2023/08/15 09:09:28;;;;;;;5.20;1.70;;;25.10;99.90;;;;;;5059595;28;20028;-80
2023/08/15 09:11:54;;;;;;;4.95;1.88;;;25.30;99.90;;;;;;5045343;28;20035;-79
2023/08/15 09:14:20;;;;;;;3.75;1.90;;;25.30;99.90;;;;;;5062467;28;20342;-78
2023/08/15 09:16:48;;;;;;;4.82;1.98;;;25.40;99.90;;;;;;5062456;28;20040;-80
2023/08/15 09:19:14;;;;;;;3.88;1.65;;;25.40;99.90;;;;;;5060812;28;20308;-79
2023/08/15 09:21:41;;;;;;;2.75;1.45;;;25.20;99.90;;;;;;5061208;28;20037;-79
2023/08/15 09:24:07;;;;;;;3.30;1.70;;;25.40;99.90;;;;;;5060937;28;20254;-78
2023/08/15 09:26:34;;;;;;;3.55;1.55;;;25.60;99.90;;;;;;5061342;28;20064;-77
2023/08/15 09:29:01;;;;;;;4.78;1.77;;;25.70;99.90;;;;;;5045312;28;20240;-77
2023/08/15 09:31:26;;;;;;;5.25;2.22;;;25.80;99.90;;;;;;5045886;28;20678;-77
2023/08/15 09:33:52;;;;;;;4.13;1.45;;;26.00;99.90;;;;;;5045366;28;20036;-78
2023/08/15 09:36:18;;;;;;;4.13;1.70;;;26.30;99.90;;;;;;5027360;28;20050;-79
2023/08/15 09:38:44;;;;;;;3.03;1.50;;;26.70;99.90;;;;;;5020895;28;20342;-79
2023/08/15 09:41:11;;;;;;;5.13;1.75;;;26.90;99.90;;;;;;5028554;28;20048;-77
2023/08/15 09:43:50;;;;;;;5.00;2.38;;;26.80;99.90;;;;;;5061536;28;20039;-78
2023/08/15 09:46:19;;;;;;;3.88;1.75;;;26.80;99.90;;;;;;5060831;28;20033;-77
2023/08/15 09:48:49;;;;;;;2.75;1.50;;;27.10;99.90;;;;;;5043768;28;20120;-78
2023/08/15 09:51:17;;;;;;;3.70;1.33;;;27.50;99.90;;;;;;5049637;28;20040;-79
2023/08/15 09:53:44;;;;;;;3.53;1.23;;;27.10;99.90;;;;;;5085462;28;20336;-77
2023/08/15 09:56:12;;;;;;;2.88;1.45;;;27.20;99.90;;;;;;5085371;28;20234;-77
2023/08/15 09:58:38;;;;;;;4.28;1.58;;;27.50;99.90;;;;;;5080020;28;20033;-77
2023/08/15 10:01:08;;;;;;;4.22;1.30;;;27.50;99.90;;;;;;5057832;28;20132;-79
2023/08/15 10:03:40;;;;;;;3.55;1.40;;;27.60;99.90;;;;;;5080556;28;20019;-78
2023/08/15 10:06:09;;;;;;;3.10;1.20;;;27.60;99.90;;;;;;5085237;28;20084;-77
2023/08/15 10:08:39;;;;;;;2.85;1.50;;;27.80;99.90;;;;;;5085819;28;20032;-77
2023/08/15 10:11:09;;;;;;;4.45;1.35;;;27.40;99.90;;;;;;5084692;28;20214;-76
2023/08/15 10:13:37;;;;;;;2.72;1.50;;;27.60;99.90;;;;;;5046888;28;20024;-77
2023/08/15 10:16:10;;;;;;;3.92;1.40;;;27.90;99.90;;;;;;5068373;28;20145;-77
2023/08/15 10:18:35;;;;;;;4.72;1.52;;;28.00;99.90;;;;;;5068413;28;20028;-76
2023/08/15 10:21:01;;;;;;;2.40;1.17;;;28.10;99.90;;;;;;5051682;28;20325;-77
2023/08/15 10:23:29;;;;;;;3.63;1.20;;;28.30;99.90;;;;;;5067957;28;20040;-78
2023/08/15 10:25:56;;;;;;;2.28;1.20;;;28.40;99.90;;;;;;5063930;28;20183;-78
2023/08/15 10:28:22;;;;;;;2.25;1.38;;;28.40;99.90;;;;;;5052816;28;20035;-77
2023/08/15 10:30:48;;;;;;;4.25;1.40;;;27.90;99.90;;;;;;5080679;28;20024;-77
2023/08/15 10:33:18;;;;;;;4.15;1.30;;;27.80;99.90;;;;;;5064329;28;20032;-77
2023/08/15 10:35:55;;;;;;;1.90;1.10;;;28.20;99.90;;;;;;5080547;28;20098;-77
2023/08/15 10:38:25;;;;;;;4.70;1.50;;;28.10;99.90;;;;;;5077356;28;20047;-76
2023/08/15 10:40:53;;;;;;;3.08;1.70;;;28.00;99.90;;;;;;5080531;28;20024;-77
2023/08/15 10:43:24;;;;;;;3.60;1.30;;;27.80;99.90;;;;;;5063551;28;20070;-76
2023/08/15 10:45:52;;;;;;;3.17;1.30;;;28.20;99.90;;;;;;5080032;28;20050;-75
2023/08/15 10:48:36;;;;;;;4.35;1.30;;;27.70;99.90;;;;;;5079349;28;20210;-76
2023/08/15 10:51:02;;;;;;;3.58;1.38;;;27.60;99.90;;;;;;5080953;28;20512;-78
2023/08/15 10:53:28;;;;;;;1.73;1.27;;;27.50;99.90;;;;;;5060535;28;20066;-77
2023/08/15 10:55:54;;;;;;;2.22;1.30;;;27.90;99.90;;;;;;5080152;28;20498;-77
2023/08/15 10:58:22;;;;;;;3.45;1.45;;;28.00;99.90;;;;;;5062659;28;20028;-76
2023/08/15 11:00:49;;;;;;;2.92;1.50;;;28.00;99.90;;;;;;5080693;28;20027;-76
2023/08/15 11:03:15;;;;;;;2.35;1.30;;;28.00;99.90;;;;;;5061790;28;20039;-77
2023/08/15 11:05:41;;;;;;;3.78;1.75;;;28.50;99.90;;;;;;5062393;28;20093;-77
2023/08/15 11:08:19;;;;;;;2.67;1.60;;;28.30;99.90;;;;;;5043708;28;20341;-76
2023/08/15 11:10:50;;;;;;;2.08;1.50;;;27.90;99.90;;;;;;5078966;28;20028;-77
2023/08/15 11:13:16;;;;;;;2.78;1.55;;;28.20;99.90;;;;;;5060134;28;20109;-77
2023/08/15 11:15:44;;;;;;;3.25;1.60;;;28.40;99.90;;;;;;5066715;28;20032;-77
2023/08/15 11:18:11;;;;;;;3.78;1.90;;;28.40;99.90;;;;;;5070893;28;20036;-76
2023/08/15 11:20:38;;;;;;;2.20;1.40;;;28.70;99.90;;;;;;5056336;28;20142;-76
2023/08/15 11:23:04;;;;;;;3.28;1.50;;;28.40;99.90;;;;;;5075786;28;20338;-78
2023/08/15 11:25:30;;;;;;;2.63;1.42;;;28.40;99.90;;;;;;5078535;28;20034;-78
2023/08/15 11:27:56;;;;;;;2.80;1.60;;;28.30;99.90;;;;;;5044967;28;20059;-77
2023/08/15 11:30:22;;;;;;;3.17;1.60;;;28.20;99.90;;;;;;5091038;28;20337;-77
2023/08/15 11:32:49;;;;;;;2.45;1.50;;;27.90;99.90;;;;;;5056709;28;20024;-77
2023/08/15 11:35:16;;;;;;;3.40;1.90;;;27.60;99.90;;;;;;5059185;28;20329;-77
2023/08/15 11:37:42;;;;;;;4.32;1.55;;;27.70;99.90;;;;;;5082233;28;20027;-77
2023/08/15 11:40:08;;;;;;;2.25;1.40;;;27.90;99.90;;;;;;5031755;28;20037;-77
2023/08/15 11:42:35;;;;;;;4.35;1.50;;;28.10;99.90;;;;;;5067228;28;20547;-78
2023/08/15 11:45:21;;;;;;;3.08;1.67;;;28.70;99.90;;;;;;5061877;28;20069;-78
2023/08/15 11:48:03;;;;;;;4.35;1.65;;;28.80;99.90;;;;;;5060137;28;20032;-76
2023/08/15 11:50:32;;;;;;;3.17;1.50;;;29.00;99.90;;;;;;5073891;28;20048;-77
2023/08/15 11:52:58;;;;;;;3.72;1.90;;;29.00;99.90;;;;;;5064129;28;20034;-77
2023/08/15 11:55:25;;;;;;;3.90;1.70;;;29.00;99.90;;;;;;5048056;28;20031;-77
2023/08/15 11:57:52;;;;;;;4.70;2.00;;;28.80;99.90;;;;;;5059582;28;20024;-77
2023/08/15 12:00:19;;;;;;;4.10;2.10;;;28.50;99.90;;;;;;5079742;28;20110;-79
2023/08/15 12:02:47;;;;;;;3.28;1.70;;;28.80;99.90;;;;;;5073225;28;20031;-78
2023/08/15 12:05:18;;;;;;;3.78;1.45;;;28.60;99.90;;;;;;5078980;28;20036;-76
2023/08/15 12:07:45;;;;;;;2.45;1.38;;;28.30;99.90;;;;;;5062530;28;20059;-78
2023/08/15 12:10:12;;;;;;;4.32;1.98;;;28.50;99.90;;;;;;5082375;28;20034;-77
2023/08/15 12:12:44;;;;;;;4.53;1.50;;;28.40;99.90;;;;;;5081936;28;20420;-77
2023/08/15 12:15:11;;;;;;;3.83;1.77;;;28.30;99.90;;;;;;5077333;28;20345;-78
2023/08/15 12:17:37;;;;;;;4.05;1.73;;;28.20;99.90;;;;;;5080645;28;20369;-77
2023/08/15 12:20:11;;;;;;;2.75;1.60;;;28.40;99.90;;;;;;5043465;28;20032;-77
2023/08/15 12:22:39;;;;;;;2.72;1.73;;;28.30;99.90;;;;;;5063492;28;20072;-77
2023/08/15 12:25:05;;;;;;;3.35;1.55;;;28.20;99.90;;;;;;5062576;28;20172;-76
2023/08/15 12:27:31;;;;;;;6.95;1.83;;;28.20;99.90;;;;;;5082365;28;20028;-76
2023/08/15 12:29:56;;;;;;;4.25;1.50;;;28.50;99.90;;;;;;5082158;28;20050;-77
2023/08/15 12:32:22;;;;;;;3.03;1.80;;;28.40;99.90;;;;;;5040918;28;20191;-78
2023/08/15 12:34:48;;;;;;;3.97;1.58;;;28.30;99.90;;;;;;5074410;28;20046;-77
2023/08/15 12:37:13;;;;;;;7.25;1.80;;;28.00;99.90;;;;;;5020875;28;20043;-77
2023/08/15 12:39:39;;;;;;;2.42;1.70;;;28.10;99.90;;;;;;5060206;28;20047;-78